Aviation Digital Data Service (ADDS)

Output produced by METARs form (0538 UTC 01 February 2015)
found at http://aviationweather.gov/adds/metars/
 
KDFW 010520Z 0106/0212 16014KT 3SM SHRA BR OVC007 
     FM010800 18010KT 5SM BR VCSH SCT003 OVC007 
     FM011200 22008KT P6SM SCT007 OVC014 
     FM011500 30012KT P6SM OVC015 
     FM011800 33018KT P6SM OVC023 
     FM012000 34020G30KT P6SM FEW035 SCT120